Time;durP1;ratioP1;P1;durP2;ratioP2;P2;SDS_P1;SDS_P2;PMS_P1;PMS_P2;Temp;Humidity;BMP_temperature;BMP_pressure;BME280_temperature;BME280_humidity;BME280_pressure;Samples;Min_cycle;Max_cycle;Signal;HPM_P1;HPM_P2
2023/11/17 00:01:22;;;;;;;15.32;3.97;;;;;;;;;;5024661;28;20053;-76
2023/11/17 00:03:53;;;;;;;8.23;3.75;;;;;;;;;;5023414;28;20052;-76
2023/11/17 00:06:25;;;;;;;5.85;3.58;;;;;;;;;;5023935;28;20053;-76
2023/11/17 00:08:58;;;;;;;14.00;5.47;;;;;;;;;;5024415;28;20484;-75
2023/11/17 00:11:28;;;;;;;8.60;4.20;;;;;;;;;;5022774;28;20053;-76
2023/11/17 00:13:58;;;;;;;13.88;4.45;;;;;;;;;;5024239;28;20056;-76
2023/11/17 00:16:29;;;;;;;8.60;4.43;;;;;;;;;;5023206;28;20086;-76
2023/11/17 00:19:01;;;;;;;11.15;4.50;;;;;;;;;;5023963;28;20045;-75
2023/11/17 00:21:34;;;;;;;8.00;3.80;;;;;;;;;;5024717;28;20630;-76
2023/11/17 00:24:06;;;;;;;6.70;3.92;;;;;;;;;;5024033;28;20508;-76
2023/11/17 00:26:36;;;;;;;6.95;3.88;;;;;;;;;;5024623;28;20052;-76
2023/11/17 00:29:09;;;;;;;13.20;4.40;;;;;;;;;;5023170;28;20056;-76
2023/11/17 00:31:39;;;;;;;10.45;4.43;;;;;;;;;;5024389;28;20057;-76
2023/11/17 00:34:09;;;;;;;7.82;4.43;;;;;;;;;;5023841;28;20050;-75
2023/11/17 00:36:46;;;;;;;8.40;5.15;;;;;;;;;;5024534;28;20396;-76
2023/11/17 00:39:17;;;;;;;9.60;3.72;;;;;;;;;;5023818;28;20049;-80
2023/11/17 00:41:47;;;;;;;11.93;4.47;;;;;;;;;;5022284;28;20061;-76
2023/11/17 00:44:17;;;;;;;6.35;4.20;;;;;;;;;;5025373;28;20056;-76
2023/11/17 00:46:47;;;;;;;11.02;4.55;;;;;;;;;;5021829;28;20535;-76
2023/11/17 00:49:18;;;;;;;8.90;3.97;;;;;;;;;;5022986;28;20060;-76
2023/11/17 00:51:52;;;;;;;7.88;4.18;;;;;;;;;;5022199;28;20045;-76
2023/11/17 00:54:26;;;;;;;6.97;4.13;;;;;;;;;;5022245;28;20052;-76
2023/11/17 00:56:58;;;;;;;9.02;3.97;;;;;;;;;;5024283;28;20054;-76
2023/11/17 00:59:30;;;;;;;7.55;3.50;;;;;;;;;;5023707;28;20100;-76
2023/11/17 01:02:01;;;;;;;8.65;3.17;;;;;;;;;;5023792;28;20599;-76
2023/11/17 01:04:34;;;;;;;6.47;3.53;;;;;;;;;;5023115;28;20427;-76
2023/11/17 01:07:04;;;;;;;8.07;3.08;;;;;;;;;;5006394;28;20512;-77
2023/11/17 01:09:36;;;;;;;12.35;2.78;;;;;;;;;;5024095;28;20052;-76
2023/11/17 01:12:07;;;;;;;6.80;2.50;;;;;;;;;;5022131;28;20064;-76
2023/11/17 01:14:39;;;;;;;3.95;2.10;;;;;;;;;;5023672;28;20053;-75
2023/11/17 01:17:11;;;;;;;15.48;2.20;;;;;;;;;;5022168;28;20065;-76
2023/11/17 01:19:45;;;;;;;3.15;1.67;;;;;;;;;;5023376;28;20048;-76
2023/11/17 01:22:15;;;;;;;7.50;1.83;;;;;;;;;;5023708;28;20061;-76
2023/11/17 01:24:49;;;;;;;2.72;1.83;;;;;;;;;;5022209;28;20049;-73
2023/11/17 01:27:23;;;;;;;4.93;1.65;;;;;;;;;;5021802;28;20067;-75
2023/11/17 01:29:53;;;;;;;3.53;2.08;;;;;;;;;;5023218;28;20437;-76
2023/11/17 01:32:23;;;;;;;3.75;1.75;;;;;;;;;;5023437;28;20052;-76
2023/11/17 01:34:54;;;;;;;3.33;1.70;;;;;;;;;;5023246;28;20056;-76
2023/11/17 01:37:34;;;;;;;5.00;1.58;;;;;;;;;;5021416;28;20068;-76
2023/11/17 01:40:11;;;;;;;3.88;1.52;;;;;;;;;;5018520;28;20053;-76
2023/11/17 01:42:42;;;;;;;5.03;1.60;;;;;;;;;;5023430;28;20049;-76
2023/11/17 01:45:14;;;;;;;5.13;1.75;;;;;;;;;;5022812;28;20050;-74
2023/11/17 01:47:45;;;;;;;2.95;1.42;;;;;;;;;;5022744;28;20052;-74
2023/11/17 01:50:15;;;;;;;4.82;1.73;;;;;;;;;;5022930;28;20053;-74
2023/11/17 01:52:50;;;;;;;3.03;1.60;;;;;;;;;;5021197;28;20058;-77
2023/11/17 01:55:25;;;;;;;2.47;1.38;;;;;;;;;;5021474;28;20057;-77
2023/11/17 01:57:57;;;;;;;3.65;1.55;;;;;;;;;;5022439;28;20416;-76
2023/11/17 02:00:28;;;;;;;5.65;1.50;;;;;;;;;;5021229;28;20049;-76
2023/11/17 02:03:00;;;;;;;2.25;1.30;;;;;;;;;;5021283;28;20058;-76
2023/11/17 02:05:33;;;;;;;3.00;1.50;;;;;;;;;;5021237;28;20412;-76
2023/11/17 02:08:03;;;;;;;3.10;1.67;;;;;;;;;;5021599;28;20673;-76
2023/11/17 02:11:01;;;;;;;4.35;1.50;;;;;;;;;;5021037;28;20149;-75
2023/11/17 02:13:51;;;;;;;4.57;1.60;;;;;;;;;;5020842;28;20054;-76
2023/11/17 02:16:24;;;;;;;5.30;1.65;;;;;;;;;;5021332;28;20057;-76
2023/11/17 02:18:58;;;;;;;2.20;1.15;;;;;;;;;;5021862;28;20057;-76
2023/11/17 02:21:34;;;;;;;3.10;1.48;;;;;;;;;;5021423;28;20041;-76
2023/11/17 02:24:07;;;;;;;2.55;1.23;;;;;;;;;;5022224;28;20092;-76
2023/11/17 02:27:06;;;;;;;2.65;1.30;;;;;;;;;;5022722;28;20060;-76
2023/11/17 02:29:37;;;;;;;7.28;1.50;;;;;;;;;;5022107;28;20049;-73
2023/11/17 02:32:15;;;;;;;3.58;1.40;;;;;;;;;;5021038;28;20053;-76
2023/11/17 02:34:46;;;;;;;6.00;1.40;;;;;;;;;;5022256;28;20061;-76
2023/11/17 02:37:18;;;;;;;2.22;1.25;;;;;;;;;;5021282;28;20061;-76
2023/11/17 02:39:49;;;;;;;5.75;1.10;;;;;;;;;;5022085;28;20060;-76
2023/11/17 02:42:24;;;;;;;5.75;1.38;;;;;;;;;;5022525;28;20520;-73
2023/11/17 02:45:00;;;;;;;4.72;1.40;;;;;;;;;;5022248;28;20061;-74
2023/11/17 02:47:35;;;;;;;2.63;1.33;;;;;;;;;;5021834;28;20057;-74
2023/11/17 02:50:10;;;;;;;3.88;1.25;;;;;;;;;;5022025;28;20519;-74
2023/11/17 02:52:58;;;;;;;3.42;1.20;;;;;;;;;;5020863;28;20053;-75
2023/11/17 02:55:35;;;;;;;3.20;1.20;;;;;;;;;;5022189;28;20049;-75
2023/11/17 02:58:06;;;;;;;2.67;1.40;;;;;;;;;;5022308;28;20049;-75
2023/11/17 03:00:36;;;;;;;4.05;1.35;;;;;;;;;;5020947;28;20054;-74
2023/11/17 03:03:07;;;;;;;5.03;1.27;;;;;;;;;;5022369;28;20060;-74
2023/11/17 03:05:37;;;;;;;4.45;1.27;;;;;;;;;;5019989;28;20519;-74
2023/11/17 03:08:08;;;;;;;3.28;1.80;;;;;;;;;;5022023;28;20056;-74
2023/11/17 03:10:38;;;;;;;5.05;1.83;;;;;;;;;;5021937;28;20805;-74
2023/11/17 03:13:15;;;;;;;3.47;1.40;;;;;;;;;;5022131;28;20046;-74
2023/11/17 03:15:46;;;;;;;2.47;1.55;;;;;;;;;;5025370;28;20663;-74
2023/11/17 03:18:17;;;;;;;4.38;1.58;;;;;;;;;;5024825;28;20512;-75
2023/11/17 03:20:48;;;;;;;6.00;1.52;;;;;;;;;;5025600;28;20060;-75
2023/11/17 03:23:18;;;;;;;2.38;1.30;;;;;;;;;;5025935;28;20045;-74
2023/11/17 03:25:48;;;;;;;5.20;1.35;;;;;;;;;;5025829;28;20042;-74
2023/11/17 03:28:21;;;;;;;2.75;1.25;;;;;;;;;;5024406;28;20416;-74
2023/11/17 03:30:55;;;;;;;2.78;1.35;;;;;;;;;;5025452;28;20052;-75
2023/11/17 03:33:30;;;;;;;2.35;1.33;;;;;;;;;;5025791;28;20515;-74
2023/11/17 03:36:02;;;;;;;4.30;1.80;;;;;;;;;;5025900;28;20446;-74
2023/11/17 03:38:35;;;;;;;5.70;1.85;;;;;;;;;;5025401;28;20421;-74
2023/11/17 03:41:05;;;;;;;2.95;1.55;;;;;;;;;;5024711;28;20512;-74
2023/11/17 03:43:37;;;;;;;2.72;1.50;;;;;;;;;;5025320;28;20049;-74
2023/11/17 03:46:07;;;;;;;2.30;1.27;;;;;;;;;;5024259;28;20060;-74
2023/11/17 03:48:38;;;;;;;3.25;1.40;;;;;;;;;;5025826;28;20137;-75
2023/11/17 03:51:09;;;;;;;12.18;1.65;;;;;;;;;;5024730;28;20776;-75
2023/11/17 03:53:38;;;;;;;2.92;1.50;;;;;;;;;;5024239;28;20076;-74
2023/11/17 03:56:09;;;;;;;2.30;1.33;;;;;;;;;;5024949;28;20496;-74
2023/11/17 03:58:39;;;;;;;3.10;1.45;;;;;;;;;;5024625;28;20583;-74
2023/11/17 04:01:10;;;;;;;3.50;1.40;;;;;;;;;;5024671;28;20050;-75
2023/11/17 04:03:40;;;;;;;7.43;1.75;;;;;;;;;;5023183;28;20049;-74
2023/11/17 04:06:11;;;;;;;3.88;1.13;;;;;;;;;;5024674;28;20052;-75
2023/11/17 04:08:41;;;;;;;3.13;1.23;;;;;;;;;;5024553;28;20494;-74
2023/11/17 04:11:15;;;;;;;3.95;1.92;;;;;;;;;;5025505;28;20037;-74
2023/11/17 04:13:45;;;;;;;2.90;1.42;;;;;;;;;;5024861;28;20049;-74
2023/11/17 04:16:15;;;;;;;2.53;1.30;;;;;;;;;;5023785;28;20056;-75
2023/11/17 04:18:46;;;;;;;2.50;1.52;;;;;;;;;;5024974;28;20049;-75
2023/11/17 04:21:17;;;;;;;1.80;1.25;;;;;;;;;;5025219;28;20049;-75
2023/11/17 04:23:49;;;;;;;6.22;1.70;;;;;;;;;;5024217;28;20660;-74
2023/11/17 04:26:19;;;;;;;2.13;1.70;;;;;;;;;;5023845;28;20427;-74
2023/11/17 04:28:49;;;;;;;2.15;1.20;;;;;;;;;;5023954;28;20496;-74
2023/11/17 04:31:19;;;;;;;4.97;1.80;;;;;;;;;;5024405;28;20038;-75
2023/11/17 04:33:49;;;;;;;3.75;1.45;;;;;;;;;;5025586;28;20045;-74
2023/11/17 04:36:23;;;;;;;3.28;1.48;;;;;;;;;;5023563;28;20065;-74
2023/11/17 04:38:55;;;;;;;2.20;1.20;;;;;;;;;;5024495;28;20058;-74
2023/11/17 04:41:25;;;;;;;3.15;1.52;;;;;;;;;;5024118;28;20049;-75
2023/11/17 04:43:57;;;;;;;3.15;1.63;;;;;;;;;;5024006;28;20393;-74
2023/11/17 04:46:28;;;;;;;3.17;1.02;;;;;;;;;;5024510;28;20068;-74
2023/11/17 04:48:58;;;;;;;1.90;1.40;;;;;;;;;;5024030;28;20049;-74
2023/11/17 04:51:31;;;;;;;9.10;1.70;;;;;;;;;;5023669;28;20045;-75
2023/11/17 04:54:02;;;;;;;3.80;1.67;;;;;;;;;;5022305;28;20072;-74
2023/11/17 04:56:32;;;;;;;4.45;1.55;;;;;;;;;;5023718;28;20037;-74
2023/11/17 04:59:02;;;;;;;6.13;1.40;;;;;;;;;;5023805;28;20048;-74
2023/11/17 05:01:34;;;;;;;2.90;1.52;;;;;;;;;;5023276;28;20062;-74
2023/11/17 05:04:05;;;;;;;3.47;1.52;;;;;;;;;;5023545;28;20505;-74
2023/11/17 05:06:36;;;;;;;2.28;1.15;;;;;;;;;;5023985;28;20049;-75
2023/11/17 05:09:10;;;;;;;6.43;1.63;;;;;;;;;;5023383;28;20061;-75
2023/11/17 05:11:43;;;;;;;4.82;1.55;;;;;;;;;;5022151;28;20041;-75
2023/11/17 05:14:13;;;;;;;7.63;2.13;;;;;;;;;;5021830;28;20054;-75
2023/11/17 05:16:45;;;;;;;5.40;1.50;;;;;;;;;;5022927;28;20520;-75
2023/11/17 05:19:16;;;;;;;3.67;1.77;;;;;;;;;;5024696;28;20080;-75
2023/11/17 05:21:48;;;;;;;7.75;1.90;;;;;;;;;;5023171;28;20049;-75
2023/11/17 05:24:19;;;;;;;3.08;1.70;;;;;;;;;;5023225;28;20096;-75
2023/11/17 05:26:50;;;;;;;2.40;1.55;;;;;;;;;;5021528;28;20049;-75
2023/11/17 05:29:22;;;;;;;2.25;1.40;;;;;;;;;;5023073;28;20057;-75
2023/11/17 05:31:52;;;;;;;4.10;1.70;;;;;;;;;;5023215;28;20512;-74
2023/11/17 05:34:24;;;;;;;3.85;1.42;;;;;;;;;;5023514;28;20056;-75
2023/11/17 05:36:55;;;;;;;1.95;1.40;;;;;;;;;;5022371;28;20523;-75
2023/11/17 05:39:26;;;;;;;7.00;1.92;;;;;;;;;;5022961;28;20041;-75
2023/11/17 05:41:57;;;;;;;3.17;1.65;;;;;;;;;;5023374;28;20056;-75
2023/11/17 05:44:27;;;;;;;5.25;2.13;;;;;;;;;;5022801;28;20064;-75
2023/11/17 05:46:59;;;;;;;8.93;1.75;;;;;;;;;;5023002;28;20065;-75
2023/11/17 05:49:29;;;;;;;6.38;2.15;;;;;;;;;;5023259;28;20382;-75
2023/11/17 05:51:59;;;;;;;4.82;1.95;;;;;;;;;;5005379;28;20500;-75
2023/11/17 05:54:30;;;;;;;5.10;1.73;;;;;;;;;;5022269;28;20053;-75
2023/11/17 05:57:00;;;;;;;4.22;1.60;;;;;;;;;;5022721;28;20049;-75
2023/11/17 05:59:30;;;;;;;3.22;2.00;;;;;;;;;;5021531;28;20416;-75
2023/11/17 06:02:03;;;;;;;4.95;1.58;;;;;;;;;;5022921;28;20060;-76
2023/11/17 06:04:34;;;;;;;5.05;1.60;;;;;;;;;;5022823;28;20053;-75
2023/11/17 06:07:07;;;;;;;5.95;1.60;;;;;;;;;;5023146;28;20053;-75
2023/11/17 06:09:38;;;;;;;5.57;1.70;;;;;;;;;;5022739;28;20041;-75
2023/11/17 06:12:10;;;;;;;3.10;1.33;;;;;;;;;;5021657;28;20515;-75
2023/11/17 06:14:41;;;;;;;8.43;1.85;;;;;;;;;;5022181;28;20041;-75
2023/11/17 06:17:11;;;;;;;3.58;1.52;;;;;;;;;;5021867;28;20052;-75
2023/11/17 06:19:42;;;;;;;2.78;1.70;;;;;;;;;;5022577;28;20046;-75
2023/11/17 06:22:13;;;;;;;3.85;2.05;;;;;;;;;;5022799;28;20425;-75
2023/11/17 06:24:57;;;;;;;3.80;1.58;;;;;;;;;;5022540;28;20049;-75
2023/11/17 06:27:28;;;;;;;4.90;1.70;;;;;;;;;;5021435;28;20059;-75
2023/11/17 06:30:00;;;;;;;5.05;1.75;;;;;;;;;;5022341;28;20048;-76
2023/11/17 06:32:31;;;;;;;3.70;1.80;;;;;;;;;;5022375;28;20057;-76
2023/11/17 06:35:02;;;;;;;5.93;1.80;;;;;;;;;;5022370;28;20045;-75
2023/11/17 06:37:32;;;;;;;2.22;1.50;;;;;;;;;;5022023;28;20065;-75
2023/11/17 06:40:06;;;;;;;8.93;2.00;;;;;;;;;;5022029;28;20131;-75
2023/11/17 06:42:40;;;;;;;3.45;1.67;;;;;;;;;;5021979;28;20053;-75
2023/11/17 06:45:11;;;;;;;4.32;1.77;;;;;;;;;;5021408;28;20053;-75
2023/11/17 06:47:43;;;;;;;6.80;1.80;;;;;;;;;;5021774;28;20045;-75
2023/11/17 06:50:13;;;;;;;5.43;1.60;;;;;;;;;;5025986;28;20046;-75
2023/11/17 06:52:44;;;;;;;5.15;1.73;;;;;;;;;;5025834;28;20045;-75
2023/11/17 06:55:15;;;;;;;3.65;1.42;;;;;;;;;;5026720;28;20053;-74
2023/11/17 06:57:47;;;;;;;4.00;1.77;;;;;;;;;;5026203;28;20057;-75
2023/11/17 07:00:17;;;;;;;3.35;1.67;;;;;;;;;;5026440;28;20049;-75
2023/11/17 07:02:48;;;;;;;4.65;1.80;;;;;;;;;;5025587;28;20052;-75
2023/11/17 07:05:19;;;;;;;6.05;1.70;;;;;;;;;;5025798;28;20049;-75
2023/11/17 07:07:49;;;;;;;4.10;2.15;;;;;;;;;;5026174;28;20049;-75
2023/11/17 07:10:24;;;;;;;8.40;2.30;;;;;;;;;;5024689;28;20058;-75
2023/11/17 07:12:56;;;;;;;7.55;2.40;;;;;;;;;;5025234;28;20064;-75
2023/11/17 07:15:40;;;;;;;6.68;2.20;;;;;;;;;;5026239;28;20404;-75
2023/11/17 07:18:12;;;;;;;5.43;2.17;;;;;;;;;;5025778;28;20057;-75
2023/11/17 07:20:43;;;;;;;9.00;2.42;;;;;;;;;;5022739;28;20060;-75
2023/11/17 07:23:14;;;;;;;3.00;1.80;;;;;;;;;;5025409;28;20637;-75
2023/11/17 07:25:45;;;;;;;4.22;2.20;;;;;;;;;;5025806;28;20504;-75
2023/11/17 07:28:16;;;;;;;5.45;2.00;;;;;;;;;;5025305;28;20061;-75
2023/11/17 07:30:46;;;;;;;5.57;2.08;;;;;;;;;;5025995;28;20475;-75
2023/11/17 07:33:18;;;;;;;4.65;2.30;;;;;;;;;;5025350;28;20045;-74
2023/11/17 07:35:48;;;;;;;4.78;2.17;;;;;;;;;;5025637;28;20049;-75
2023/11/17 07:38:19;;;;;;;5.18;1.80;;;;;;;;;;5024775;28;20060;-75
2023/11/17 07:40:49;;;;;;;4.03;2.55;;;;;;;;;;5025493;28;20412;-75
2023/11/17 07:43:19;;;;;;;5.00;2.22;;;;;;;;;;5025232;28;20049;-75
2023/11/17 07:45:51;;;;;;;5.50;1.92;;;;;;;;;;5025345;28;20072;-75
2023/11/17 07:48:22;;;;;;;3.80;2.10;;;;;;;;;;5025301;28;20048;-75
2023/11/17 07:50:52;;;;;;;3.35;2.03;;;;;;;;;;5024672;28;20546;-75
2023/11/17 07:53:23;;;;;;;6.53;2.33;;;;;;;;;;5024866;28;20053;-75
2023/11/17 07:55:54;;;;;;;4.00;2.00;;;;;;;;;;5025368;28;20759;-76
2023/11/17 07:58:26;;;;;;;3.22;1.75;;;;;;;;;;5025776;28;20057;-75
2023/11/17 08:01:02;;;;;;;5.28;2.10;;;;;;;;;;5021916;28;20053;-75
2023/11/17 08:03:33;;;;;;;3.10;1.90;;;;;;;;;;5025107;28;20045;-75
2023/11/17 08:06:07;;;;;;;7.68;2.70;;;;;;;;;;5024390;28;20415;-75
2023/11/17 08:08:41;;;;;;;2.55;1.58;;;;;;;;;;5024763;28;20052;-75
2023/11/17 08:11:14;;;;;;;4.55;1.60;;;;;;;;;;5023360;28;20053;-75
2023/11/17 08:13:44;;;;;;;3.95;2.45;;;;;;;;;;5024314;28;20512;-75
2023/11/17 08:16:15;;;;;;;8.45;2.08;;;;;;;;;;5024720;28;20056;-75
2023/11/17 08:18:47;;;;;;;7.05;1.88;;;;;;;;;;5024711;28;20045;-75
2023/11/17 08:21:18;;;;;;;3.40;1.70;;;;;;;;;;5024720;28;20054;-75
2023/11/17 08:23:48;;;;;;;3.45;1.90;;;;;;;;;;5025179;28;20420;-75
2023/11/17 08:26:19;;;;;;;2.65;1.77;;;;;;;;;;5023978;28;20054;-75
2023/11/17 08:28:49;;;;;;;3.25;1.73;;;;;;;;;;5023830;28;20060;-75
2023/11/17 08:31:19;;;;;;;3.10;1.98;;;;;;;;;;5024301;28;20412;-75
2023/11/17 08:33:51;;;;;;;2.83;1.60;;;;;;;;;;5024387;28;20052;-75
2023/11/17 08:36:28;;;;;;;7.03;1.73;;;;;;;;;;5023864;28;20057;-75
2023/11/17 08:38:59;;;;;;;3.65;2.03;;;;;;;;;;5023956;28;20186;-75
2023/11/17 08:41:29;;;;;;;3.53;1.70;;;;;;;;;;5023897;28;20041;-81
2023/11/17 08:43:59;;;;;;;7.93;2.10;;;;;;;;;;5024057;28;20053;-75
2023/11/17 08:46:30;;;;;;;3.33;1.98;;;;;;;;;;5024403;28;20534;-75
2023/11/17 08:49:02;;;;;;;2.95;1.75;;;;;;;;;;5024190;28;20049;-75
2023/11/17 08:51:34;;;;;;;4.72;1.70;;;;;;;;;;5023768;28;20050;-75
2023/11/17 08:54:04;;;;;;;3.03;1.90;;;;;;;;;;5024425;28;20049;-75
2023/11/17 08:56:35;;;;;;;4.85;1.90;;;;;;;;;;5023797;28;20041;-75
2023/11/17 08:59:05;;;;;;;4.55;1.63;;;;;;;;;;5023441;28;20049;-75
2023/11/17 09:01:42;;;;;;;3.58;1.52;;;;;;;;;;5023436;28;20526;-75
2023/11/17 09:04:20;;;;;;;3.92;1.70;;;;;;;;;;5023771;28;20076;-75
2023/11/17 09:06:52;;;;;;;4.60;2.10;;;;;;;;;;5024187;28;20412;-75
2023/11/17 09:09:23;;;;;;;5.50;1.88;;;;;;;;;;5024372;28;20050;-75
2023/11/17 09:12:00;;;;;;;4.32;1.77;;;;;;;;;;5022067;28;20071;-75
2023/11/17 09:14:31;;;;;;;2.60;1.70;;;;;;;;;;5023390;28;20045;-76
2023/11/17 09:17:06;;;;;;;7.55;2.30;;;;;;;;;;5023182;28;20511;-75
2023/11/17 09:19:39;;;;;;;2.53;1.50;;;;;;;;;;5023164;28;20057;-76
2023/11/17 09:22:10;;;;;;;3.30;1.80;;;;;;;;;;5023644;28;20060;-75
2023/11/17 09:24:40;;;;;;;2.15;1.45;;;;;;;;;;5023016;28;20041;-75
2023/11/17 09:27:11;;;;;;;3.47;1.60;;;;;;;;;;5023493;28;20053;-75
2023/11/17 09:29:41;;;;;;;8.75;6.28;;;;;;;;;;5022929;28;20061;-77
2023/11/17 09:32:12;;;;;;;5.70;3.10;;;;;;;;;;5023252;28;20049;-76
2023/11/17 09:34:42;;;;;;;2.63;1.65;;;;;;;;;;5023641;28;20658;-76
2023/11/17 09:37:12;;;;;;;5.03;1.80;;;;;;;;;;5022822;28;20061;-74
2023/11/17 09:39:51;;;;;;;3.58;1.40;;;;;;;;;;5022971;28;20121;-76
2023/11/17 09:42:25;;;;;;;1.95;1.35;;;;;;;;;;5023247;28;20041;-76
2023/11/17 09:44:56;;;;;;;2.63;1.30;;;;;;;;;;5023490;28;20049;-76
2023/11/17 09:47:31;;;;;;;8.52;1.27;;;;;;;;;;5022936;28;20822;-79
2023/11/17 09:50:09;;;;;;;2.92;1.30;;;;;;;;;;5021571;28;20045;-76
2023/11/17 09:52:44;;;;;;;5.93;1.70;;;;;;;;;;5023237;28;20799;-75
2023/11/17 09:55:17;;;;;;;4.60;1.48;;;;;;;;;;5022793;28;20416;-76
2023/11/17 09:57:53;;;;;;;4.32;1.40;;;;;;;;;;5023029;28;20049;-76
2023/11/17 10:00:27;;;;;;;5.30;1.67;;;;;;;;;;5023091;28;20045;-77
2023/11/17 10:03:01;;;;;;;4.82;1.75;;;;;;;;;;5021752;28;20057;-75
2023/11/17 10:05:33;;;;;;;1.80;1.20;;;;;;;;;;5022341;28;20057;-76
2023/11/17 10:08:11;;;;;;;2.05;1.10;;;;;;;;;;5022375;28;20056;-75
2023/11/17 10:10:47;;;;;;;6.43;1.42;;;;;;;;;;5021272;28;20045;-76
2023/11/17 10:13:20;;;;;;;3.03;1.50;;;;;;;;;;5021778;28;20053;-77
2023/11/17 10:15:52;;;;;;;2.92;1.27;;;;;;;;;;5022372;28;20048;-79
2023/11/17 10:18:26;;;;;;;1.40;1.02;;;;;;;;;;5022020;28;20053;-75
2023/11/17 10:20:57;;;;;;;1.23;0.95;;;;;;;;;;5022556;28;20045;-75
2023/11/17 10:23:31;;;;;;;2.80;1.50;;;;;;;;;;5022201;28;20420;-76
2023/11/17 10:26:02;;;;;;;2.65;1.58;;;;;;;;;;5022086;28;20415;-77
2023/11/17 10:28:35;;;;;;;2.10;0.95;;;;;;;;;;5022297;28;20038;-77
2023/11/17 10:31:13;;;;;;;3.33;1.40;;;;;;;;;;5021781;28;20045;-75
2023/11/17 10:33:45;;;;;;;1.92;0.98;;;;;;;;;;5022153;28;20072;-78
2023/11/17 10:36:17;;;;;;;1.30;1.15;;;;;;;;;;5022087;28;20057;-80
2023/11/17 10:39:02;;;;;;;2.22;1.10;;;;;;;;;;5034661;28;20492;-80
2023/11/17 10:41:33;;;;;;;2.33;1.17;;;;;;;;;;5042870;28;20041;-82
2023/11/17 10:44:08;;;;;;;2.75;1.55;;;;;;;;;;5024875;28;20049;-75
2023/11/17 10:46:47;;;;;;;5.53;1.60;;;;;;;;;;5042835;28;20420;-76
2023/11/17 10:49:19;;;;;;;1.73;1.23;;;;;;;;;;5042461;28;20049;-75
2023/11/17 10:51:51;;;;;;;1.90;0.93;;;;;;;;;;5041995;28;20056;-80
2023/11/17 10:54:24;;;;;;;2.95;1.00;;;;;;;;;;5041697;28;20072;-75
2023/11/17 10:57:09;;;;;;;2.03;1.08;;;;;;;;;;5042530;28;20049;-74
2023/11/17 10:59:42;;;;;;;5.65;1.25;;;;;;;;;;5042016;28;20045;-75
2023/11/17 11:02:28;;;;;;;7.28;3.67;;;;;;;;;;5041737;28;20136;-75
2023/11/17 11:05:03;;;;;;;2.33;1.23;;;;;;;;;;5042241;28;20056;-75
2023/11/17 11:07:43;;;;;;;10.32;2.67;;;;;;;;;;5041763;28;20044;-75
2023/11/17 11:10:16;;;;;;;5.20;1.50;;;;;;;;;;5041182;28;20041;-78
2023/11/17 11:12:46;;;;;;;4.40;1.73;;;;;;;;;;5024149;28;20049;-75
2023/11/17 11:15:17;;;;;;;8.07;3.05;;;;;;;;;;5040917;28;20048;-75
2023/11/17 11:17:59;;;;;;;1.63;0.88;;;;;;;;;;5041833;28;20052;-76
2023/11/17 11:20:31;;;;;;;3.22;1.70;;;;;;;;;;5041607;28;20057;-76
2023/11/17 11:23:05;;;;;;;3.10;1.60;;;;;;;;;;5041083;28;20813;-76
2023/11/17 11:25:36;;;;;;;5.88;1.60;;;;;;;;;;5041302;28;20045;-80
2023/11/17 11:28:08;;;;;;;4.53;1.27;;;;;;;;;;5041820;28;20526;-75
2023/11/17 11:30:39;;;;;;;2.50;1.50;;;;;;;;;;5041498;28;20045;-79
2023/11/17 11:33:12;;;;;;;2.92;1.67;;;;;;;;;;5041529;28;20052;-76
2023/11/17 11:35:42;;;;;;;5.90;2.08;;;;;;;;;;5044469;28;20064;-76
2023/11/17 11:38:13;;;;;;;2.30;1.70;;;;;;;;;;5043329;28;20419;-77
2023/11/17 11:40:44;;;;;;;5.03;1.60;;;;;;;;;;5044929;28;20049;-75
2023/11/17 11:43:15;;;;;;;8.18;2.42;;;;;;;;;;5044762;28;20056;-75
2023/11/17 11:45:55;;;;;;;3.53;1.33;;;;;;;;;;5045337;28;20055;-76
2023/11/17 11:48:30;;;;;;;4.90;1.40;;;;;;;;;;5045314;28;20132;-77
2023/11/17 11:51:02;;;;;;;3.58;1.80;;;;;;;;;;5045844;28;20049;-75
2023/11/17 11:53:55;;;;;;;4.13;1.50;;;;;;;;;;5028689;28;20419;-74
2023/11/17 11:56:36;;;;;;;1.65;1.20;;;;;;;;;;5045060;28;20045;-75
2023/11/17 11:59:10;;;;;;;4.30;1.60;;;;;;;;;;5043154;28;20068;-75
2023/11/17 12:01:47;;;;;;;8.35;1.30;;;;;;;;;;5044855;28;20511;-76
2023/11/17 12:04:30;;;;;;;1.65;1.10;;;;;;;;;;5043081;28;20052;-75
2023/11/17 12:07:20;;;;;;;4.68;1.70;;;;;;;;;;5044734;28;20037;-75
2023/11/17 12:09:51;;;;;;;3.15;1.17;;;;;;;;;;5044265;28;20045;-76
2023/11/17 12:12:22;;;;;;;8.13;1.40;;;;;;;;;;5044537;28;20782;-77
2023/11/17 12:14:59;;;;;;;13.20;9.27;;;;;;;;;;5044293;28;20393;-77
2023/11/17 12:17:41;;;;;;;9.77;2.10;;;;;;;;;;5042876;28;20411;-74
2023/11/17 12:20:25;;;;;;;7.10;1.83;;;;;;;;;;5044323;28;20060;-75
2023/11/17 12:23:02;;;;;;;3.33;1.45;;;;;;;;;;5044723;28;20037;-76
2023/11/17 12:25:36;;;;;;;2.53;1.30;;;;;;;;;;5044466;28;20059;-77
2023/11/17 12:28:10;;;;;;;3.80;1.70;;;;;;;;;;5043572;28;20569;-77
2023/11/17 12:30:45;;;;;;;8.43;3.10;;;;;;;;;;5043226;28;20474;-77
2023/11/17 12:33:17;;;;;;;14.23;5.15;;;;;;;;;;5044622;28;20048;-76
2023/11/17 12:35:47;;;;;;;7.75;2.30;;;;;;;;;;5044488;28;20488;-77
2023/11/17 12:38:18;;;;;;;4.60;1.48;;;;;;;;;;5043582;28;20380;-76
2023/11/17 12:41:02;;;;;;;8.82;2.50;;;;;;;;;;5044321;28;20056;-77
2023/11/17 12:43:33;;;;;;;2.70;1.65;;;;;;;;;;5042198;28;20068;-78
2023/11/17 12:46:05;;;;;;;4.82;1.40;;;;;;;;;;5042798;28;20045;-78
2023/11/17 12:48:41;;;;;;;4.63;1.60;;;;;;;;;;5044252;28;20052;-79
2023/11/17 12:51:22;;;;;;;9.60;3.67;;;;;;;;;;5043658;28;20053;-75
2023/11/17 12:53:54;;;;;;;3.10;1.42;;;;;;;;;;5043530;28;20048;-75
2023/11/17 12:56:25;;;;;;;7.60;2.13;;;;;;;;;;5044041;28;20526;-75
2023/11/17 12:58:55;;;;;;;3.58;1.50;;;;;;;;;;5043199;28;20053;-75
2023/11/17 13:01:28;;;;;;;4.32;1.38;;;;;;;;;;5043481;28;20049;-75
2023/11/17 13:03:59;;;;;;;5.93;1.90;;;;;;;;;;5043643;28;20053;-75
2023/11/17 13:06:31;;;;;;;2.63;1.52;;;;;;;;;;5043116;28;20056;-75
2023/11/17 13:09:09;;;;;;;4.38;1.90;;;;;;;;;;5043270;28;20060;-76
2023/11/17 13:11:46;;;;;;;4.38;1.67;;;;;;;;;;5043312;28;20049;-75
2023/11/17 13:14:36;;;;;;;8.85;1.70;;;;;;;;;;5043464;28;20060;-76
2023/11/17 13:17:07;;;;;;;4.72;2.00;;;;;;;;;;5025476;28;20065;-75
2023/11/17 13:19:43;;;;;;;5.78;1.35;;;;;;;;;;5042034;28;20053;-75
2023/11/17 13:22:15;;;;;;;6.32;2.10;;;;;;;;;;5042226;28;20060;-75
2023/11/17 13:24:46;;;;;;;14.95;2.10;;;;;;;;;;5044088;28;20060;-74
2023/11/17 13:27:20;;;;;;;11.30;3.10;;;;;;;;;;5041891;28;20412;-74
2023/11/17 13:29:51;;;;;;;4.82;2.00;;;;;;;;;;5043639;28;20053;-75
2023/11/17 13:32:22;;;;;;;13.15;2.95;;;;;;;;;;5042114;28;20057;-74
2023/11/17 13:34:54;;;;;;;3.70;1.50;;;;;;;;;;5042949;28;20056;-75
2023/11/17 13:37:28;;;;;;;3.17;1.30;;;;;;;;;;5041466;28;20045;-75
2023/11/17 13:39:58;;;;;;;2.47;1.20;;;;;;;;;;5043369;28;20041;-74
2023/11/17 13:42:31;;;;;;;1.98;1.20;;;;;;;;;;5043491;28;20045;-75
2023/11/17 13:45:03;;;;;;;2.38;1.60;;;;;;;;;;5042942;28;20053;-76
2023/11/17 13:47:37;;;;;;;2.65;1.73;;;;;;;;;;5043906;28;20439;-75
2023/11/17 13:50:15;;;;;;;6.30;1.90;;;;;;;;;;5043194;28;20044;-76
2023/11/17 13:52:47;;;;;;;4.47;2.25;;;;;;;;;;5042446;28;20037;-77
2023/11/17 13:55:19;;;;;;;4.60;1.75;;;;;;;;;;5042847;28;20038;-76
2023/11/17 13:57:50;;;;;;;4.60;1.77;;;;;;;;;;5042131;28;20045;-77
2023/11/17 14:00:24;;;;;;;4.93;1.60;;;;;;;;;;5041047;28;20049;-77
2023/11/17 14:02:54;;;;;;;4.22;1.63;;;;;;;;;;5043826;28;20380;-75
2023/11/17 14:05:26;;;;;;;6.20;2.92;;;;;;;;;;5041429;28;20068;-76
2023/11/17 14:07:57;;;;;;;5.85;2.00;;;;;;;;;;5043169;28;20045;-75
2023/11/17 14:10:27;;;;;;;22.20;12.65;;;;;;;;;;5042732;28;20053;-77
2023/11/17 14:12:59;;;;;;;2.75;1.60;;;;;;;;;;5042231;28;20044;-76
2023/11/17 14:15:31;;;;;;;2.53;1.45;;;;;;;;;;5042059;28;20040;-75
2023/11/17 14:18:02;;;;;;;2.45;1.40;;;;;;;;;;5041433;28;20053;-75
2023/11/17 14:20:34;;;;;;;2.25;1.25;;;;;;;;;;5042615;28;20060;-76
2023/11/17 14:23:07;;;;;;;1.65;1.27;;;;;;;;;;5041414;28;20045;-75
2023/11/17 14:25:37;;;;;;;2.08;1.13;;;;;;;;;;5042225;28;20049;-79
2023/11/17 14:28:07;;;;;;;3.00;1.60;;;;;;;;;;5042049;28;20053;-75
2023/11/17 14:30:37;;;;;;;2.67;1.55;;;;;;;;;;5041515;28;20059;-75
2023/11/17 14:33:07;;;;;;;3.90;1.50;;;;;;;;;;5042573;28;20050;-75
2023/11/17 14:35:38;;;;;;;2.47;1.50;;;;;;;;;;5042641;28;20079;-75
2023/11/17 14:38:09;;;;;;;9.38;3.13;;;;;;;;;;5042852;28;20439;-75
2023/11/17 14:40:39;;;;;;;3.88;1.80;;;;;;;;;;5041810;28;20049;-75
2023/11/17 14:43:11;;;;;;;2.70;1.40;;;;;;;;;;5040163;28;20522;-75
2023/11/17 14:45:42;;;;;;;6.78;1.42;;;;;;;;;;5041579;28;20048;-76
2023/11/17 14:48:15;;;;;;;2.30;1.38;;;;;;;;;;5041963;28;20044;-78
2023/11/17 14:50:47;;;;;;;3.50;1.52;;;;;;;;;;5041842;28;20056;-77
2023/11/17 14:53:16;;;;;;;3.08;1.60;;;;;;;;;;5041508;28;20049;-75
2023/11/17 14:55:48;;;;;;;4.93;1.88;;;;;;;;;;5041954;28;20060;-76
2023/11/17 14:58:19;;;;;;;6.50;2.13;;;;;;;;;;5042422;28;20523;-76
2023/11/17 15:00:53;;;;;;;5.57;1.38;;;;;;;;;;5040904;28;20053;-75
2023/11/17 15:03:26;;;;;;;3.65;1.40;;;;;;;;;;5041357;28;20504;-76
2023/11/17 15:05:58;;;;;;;2.85;1.42;;;;;;;;;;5042638;28;20053;-76
2023/11/17 15:08:29;;;;;;;2.22;1.20;;;;;;;;;;5042182;28;20041;-77
2023/11/17 15:11:01;;;;;;;2.53;1.25;;;;;;;;;;5044719;28;20049;-76
2023/11/17 15:13:31;;;;;;;1.88;1.17;;;;;;;;;;5046162;28;20049;-76
2023/11/17 15:16:04;;;;;;;1.90;1.27;;;;;;;;;;5050072;28;20053;-75